sensor_id;sensor_type;location;lat;lon;timestamp;temperature;humidity
14873;DHT22;7528;48.576;19.122;2023-06-05T00:01:24;17.30;84.80
14873;DHT22;7528;48.576;19.122;2023-06-05T00:06:28;17.40;84.40
14873;DHT22;7528;48.576;19.122;2023-06-05T00:11:31;17.40;83.70
14873;DHT22;7528;48.576;19.122;2023-06-05T00:16:34;17.50;83.10
14873;DHT22;7528;48.576;19.122;2023-06-05T00:21:37;17.50;82.70
14873;DHT22;7528;48.576;19.122;2023-06-05T00:26:40;17.50;82.20
14873;DHT22;7528;48.576;19.122;2023-06-05T00:31:42;17.50;81.80
14873;DHT22;7528;48.576;19.122;2023-06-05T00:36:48;17.50;82.40
14873;DHT22;7528;48.576;19.122;2023-06-05T00:41:51;17.50;82.50
14873;DHT22;7528;48.576;19.122;2023-06-05T00:46:54;17.50;82.10
14873;DHT22;7528;48.576;19.122;2023-06-05T00:51:59;17.50;82.80
14873;DHT22;7528;48.576;19.122;2023-06-05T00:57:02;17.40;83.00
14873;DHT22;7528;48.576;19.122;2023-06-05T01:02:04;17.40;83.50
14873;DHT22;7528;48.576;19.122;2023-06-05T01:07:08;17.40;83.30
14873;DHT22;7528;48.576;19.122;2023-06-05T01:12:17;17.40;83.00
14873;DHT22;7528;48.576;19.122;2023-06-05T01:17:19;17.40;83.30
14873;DHT22;7528;48.576;19.122;2023-06-05T01:22:26;17.50;82.50
14873;DHT22;7528;48.576;19.122;2023-06-05T01:27:34;17.50;82.60
14873;DHT22;7528;48.576;19.122;2023-06-05T01:32:46;17.50;82.70
14873;DHT22;7528;48.576;19.122;2023-06-05T01:37:50;17.50;82.60
14873;DHT22;7528;48.576;19.122;2023-06-05T01:42:54;17.50;83.00
14873;DHT22;7528;48.576;19.122;2023-06-05T01:47:57;17.40;83.70
14873;DHT22;7528;48.576;19.122;2023-06-05T01:53:00;17.40;83.20
14873;DHT22;7528;48.576;19.122;2023-06-05T01:58:04;17.30;82.20
14873;DHT22;7528;48.576;19.122;2023-06-05T02:03:07;17.40;82.30
14873;DHT22;7528;48.576;19.122;2023-06-05T02:08:09;17.40;81.70
14873;DHT22;7528;48.576;19.122;2023-06-05T02:13:14;17.30;81.60
14873;DHT22;7528;48.576;19.122;2023-06-05T02:18:17;17.30;81.60
14873;DHT22;7528;48.576;19.122;2023-06-05T02:23:20;17.40;82.00
14873;DHT22;7528;48.576;19.122;2023-06-05T02:28:24;17.40;82.70
14873;DHT22;7528;48.576;19.122;2023-06-05T02:33:27;17.40;83.10
14873;DHT22;7528;48.576;19.122;2023-06-05T02:38:30;17.40;83.70
14873;DHT22;7528;48.576;19.122;2023-06-05T02:43:34;17.30;84.40
14873;DHT22;7528;48.576;19.122;2023-06-05T02:48:37;17.30;85.30
14873;DHT22;7528;48.576;19.122;2023-06-05T02:53:39;17.30;84.90
14873;DHT22;7528;48.576;19.122;2023-06-05T02:58:44;17.30;84.80
14873;DHT22;7528;48.576;19.122;2023-06-05T03:03:46;17.30;84.70
14873;DHT22;7528;48.576;19.122;2023-06-05T03:08:51;17.30;84.50
14873;DHT22;7528;48.576;19.122;2023-06-05T03:13:58;17.30;84.80
14873;DHT22;7528;48.576;19.122;2023-06-05T03:19:04;17.30;84.70
14873;DHT22;7528;48.576;19.122;2023-06-05T03:24:09;17.30;85.10
14873;DHT22;7528;48.576;19.122;2023-06-05T03:29:16;17.20;85.00
14873;DHT22;7528;48.576;19.122;2023-06-05T03:34:19;17.20;84.80
14873;DHT22;7528;48.576;19.122;2023-06-05T03:39:24;17.20;85.10
14873;DHT22;7528;48.576;19.122;2023-06-05T03:44:30;17.20;85.40
14873;DHT22;7528;48.576;19.122;2023-06-05T03:49:33;17.20;85.00
14873;DHT22;7528;48.576;19.122;2023-06-05T03:54:37;17.20;84.80
14873;DHT22;7528;48.576;19.122;2023-06-05T03:59:41;17.20;85.30
14873;DHT22;7528;48.576;19.122;2023-06-05T04:04:44;17.20;85.00
14873;DHT22;7528;48.576;19.122;2023-06-05T04:09:47;17.20;84.90
14873;DHT22;7528;48.576;19.122;2023-06-05T04:14:51;17.20;84.10
14873;DHT22;7528;48.576;19.122;2023-06-05T04:19:54;17.20;83.80
14873;DHT22;7528;48.576;19.122;2023-06-05T04:24:57;17.30;84.10
14873;DHT22;7528;48.576;19.122;2023-06-05T04:30:01;17.30;84.50
14873;DHT22;7528;48.576;19.122;2023-06-05T04:35:04;17.30;82.60
14873;DHT22;7528;48.576;19.122;2023-06-05T04:40:08;17.30;83.40
14873;DHT22;7528;48.576;19.122;2023-06-05T04:45:12;17.30;83.50
14873;DHT22;7528;48.576;19.122;2023-06-05T04:50:24;17.30;83.00
14873;DHT22;7528;48.576;19.122;2023-06-05T04:55:31;17.40;83.30
14873;DHT22;7528;48.576;19.122;2023-06-05T05:00:35;17.50;82.40
14873;DHT22;7528;48.576;19.122;2023-06-05T05:05:40;17.50;81.80
14873;DHT22;7528;48.576;19.122;2023-06-05T05:10:43;17.60;83.20
14873;DHT22;7528;48.576;19.122;2023-06-05T05:15:47;17.70;81.20
14873;DHT22;7528;48.576;19.122;2023-06-05T05:20:54;17.70;81.10
14873;DHT22;7528;48.576;19.122;2023-06-05T05:31:15;17.90;80.60
14873;DHT22;7528;48.576;19.122;2023-06-05T05:36:19;17.90;79.30
14873;DHT22;7528;48.576;19.122;2023-06-05T05:41:23;18.00;78.90
14873;DHT22;7528;48.576;19.122;2023-06-05T05:46:27;18.20;78.30
14873;DHT22;7528;48.576;19.122;2023-06-05T05:51:29;18.20;77.70
14873;DHT22;7528;48.576;19.122;2023-06-05T05:56:32;18.30;78.70
14873;DHT22;7528;48.576;19.122;2023-06-05T06:01:38;18.30;77.70
14873;DHT22;7528;48.576;19.122;2023-06-05T06:06:40;18.40;76.60
14873;DHT22;7528;48.576;19.122;2023-06-05T06:11:42;18.40;78.00
14873;DHT22;7528;48.576;19.122;2023-06-05T06:16:46;18.60;78.10
14873;DHT22;7528;48.576;19.122;2023-06-05T06:21:50;18.90;76.20
14873;DHT22;7528;48.576;19.122;2023-06-05T06:26:53;19.10;74.80
14873;DHT22;7528;48.576;19.122;2023-06-05T06:31:57;19.30;74.10
14873;DHT22;7528;48.576;19.122;2023-06-05T06:36:59;19.40;73.50
14873;DHT22;7528;48.576;19.122;2023-06-05T06:42:02;19.40;71.90
14873;DHT22;7528;48.576;19.122;2023-06-05T06:47:09;19.40;73.20
14873;DHT22;7528;48.576;19.122;2023-06-05T06:52:11;19.50;72.30
14873;DHT22;7528;48.576;19.122;2023-06-05T06:57:14;19.50;72.60
14873;DHT22;7528;48.576;19.122;2023-06-05T07:02:19;19.60;72.40
14873;DHT22;7528;48.576;19.122;2023-06-05T07:07:21;19.70;73.30
14873;DHT22;7528;48.576;19.122;2023-06-05T07:12:28;19.90;71.30
14873;DHT22;7528;48.576;19.122;2023-06-05T07:17:32;20.10;70.30
14873;DHT22;7528;48.576;19.122;2023-06-05T07:22:35;20.30;70.30
14873;DHT22;7528;48.576;19.122;2023-06-05T07:32:56;20.50;69.90
14873;DHT22;7528;48.576;19.122;2023-06-05T07:37:58;20.60;69.50
14873;DHT22;7528;48.576;19.122;2023-06-05T07:43:01;20.70;70.70
14873;DHT22;7528;48.576;19.122;2023-06-05T07:48:05;20.80;70.40
14873;DHT22;7528;48.576;19.122;2023-06-05T07:53:07;20.90;69.10
14873;DHT22;7528;48.576;19.122;2023-06-05T07:58:10;21.00;69.60
14873;DHT22;7528;48.576;19.122;2023-06-05T08:03:14;21.10;68.10
14873;DHT22;7528;48.576;19.122;2023-06-05T08:08:20;21.20;68.60
14873;DHT22;7528;48.576;19.122;2023-06-05T08:13:23;21.30;67.90
14873;DHT22;7528;48.576;19.122;2023-06-05T08:18:27;21.40;68.30
14873;DHT22;7528;48.576;19.122;2023-06-05T08:23:29;21.40;68.00
14873;DHT22;7528;48.576;19.122;2023-06-05T08:28:31;21.50;69.00
14873;DHT22;7528;48.576;19.122;2023-06-05T08:33:36;21.50;67.30
14873;DHT22;7528;48.576;19.122;2023-06-05T08:38:39;21.60;68.80
14873;DHT22;7528;48.576;19.122;2023-06-05T08:43:41;21.80;68.70
14873;DHT22;7528;48.576;19.122;2023-06-05T08:48:47;22.00;68.10
14873;DHT22;7528;48.576;19.122;2023-06-05T08:53:56;22.20;67.80
14873;DHT22;7528;48.576;19.122;2023-06-05T08:58:59;22.40;66.00
14873;DHT22;7528;48.576;19.122;2023-06-05T09:04:03;22.50;65.20
14873;DHT22;7528;48.576;19.122;2023-06-05T09:09:07;22.60;64.90
14873;DHT22;7528;48.576;19.122;2023-06-05T09:14:10;22.60;65.60
14873;DHT22;7528;48.576;19.122;2023-06-05T09:19:15;22.60;65.80
14873;DHT22;7528;48.576;19.122;2023-06-05T09:24:19;22.70;66.00
14873;DHT22;7528;48.576;19.122;2023-06-05T09:29:23;22.70;64.50
14873;DHT22;7528;48.576;19.122;2023-06-05T09:34:29;22.60;65.60
14873;DHT22;7528;48.576;19.122;2023-06-05T09:39:33;22.60;65.00
14873;DHT22;7528;48.576;19.122;2023-06-05T09:44:36;22.60;65.30
14873;DHT22;7528;48.576;19.122;2023-06-05T09:49:47;22.70;64.00
14873;DHT22;7528;48.576;19.122;2023-06-05T09:54:51;22.90;65.80
14873;DHT22;7528;48.576;19.122;2023-06-05T09:59:55;23.10;66.70
14873;DHT22;7528;48.576;19.122;2023-06-05T10:05:02;23.20;64.50
14873;DHT22;7528;48.576;19.122;2023-06-05T10:51:35;23.60;63.00
14873;DHT22;7528;48.576;19.122;2023-06-05T10:56:53;24.60;59.90
14873;DHT22;7528;48.576;19.122;2023-06-05T11:02:22;25.60;56.10
14873;DHT22;7528;48.576;19.122;2023-06-05T11:07:27;26.10;52.40
14873;DHT22;7528;48.576;19.122;2023-06-05T11:13:01;26.50;50.80
14873;DHT22;7528;48.576;19.122;2023-06-05T11:18:29;26.60;49.60
14873;DHT22;7528;48.576;19.122;2023-06-05T11:23:32;26.70;50.30
14873;DHT22;7528;48.576;19.122;2023-06-05T11:28:42;26.80;50.00
14873;DHT22;7528;48.576;19.122;2023-06-05T11:33:45;27.00;50.50
14873;DHT22;7528;48.576;19.122;2023-06-05T11:38:54;27.10;49.20
14873;DHT22;7528;48.576;19.122;2023-06-05T11:43:57;27.20;48.00
14873;DHT22;7528;48.576;19.122;2023-06-05T11:48:59;27.20;47.10
14873;DHT22;7528;48.576;19.122;2023-06-05T11:54:03;27.30;49.20
14873;DHT22;7528;48.576;19.122;2023-06-05T11:59:09;27.40;47.20
14873;DHT22;7528;48.576;19.122;2023-06-05T12:04:11;27.60;49.20
14873;DHT22;7528;48.576;19.122;2023-06-05T12:09:16;27.80;49.00
14873;DHT22;7528;48.576;19.122;2023-06-05T12:14:37;27.80;46.80
14873;DHT22;7528;48.576;19.122;2023-06-05T12:19:40;27.80;46.60
14873;DHT22;7528;48.576;19.122;2023-06-05T12:24:43;27.80;47.20
14873;DHT22;7528;48.576;19.122;2023-06-05T12:29:53;27.80;46.50
14873;DHT22;7528;48.576;19.122;2023-06-05T12:34:56;27.90;48.00
14873;DHT22;7528;48.576;19.122;2023-06-05T12:40:00;27.90;46.90
14873;DHT22;7528;48.576;19.122;2023-06-05T12:45:10;27.90;46.50
14873;DHT22;7528;48.576;19.122;2023-06-05T12:50:13;28.00;46.20
14873;DHT22;7528;48.576;19.122;2023-06-05T12:55:18;28.00;45.60
14873;DHT22;7528;48.576;19.122;2023-06-05T13:00:21;28.10;46.30
14873;DHT22;7528;48.576;19.122;2023-06-05T13:05:23;28.00;45.40
14873;DHT22;7528;48.576;19.122;2023-06-05T13:10:27;28.10;46.30
14873;DHT22;7528;48.576;19.122;2023-06-05T13:15:29;28.10;45.30
14873;DHT22;7528;48.576;19.122;2023-06-05T13:20:32;28.10;47.40
14873;DHT22;7528;48.576;19.122;2023-06-05T13:25:36;28.00;44.30
14873;DHT22;7528;48.576;19.122;2023-06-05T13:30:40;28.00;44.00
14873;DHT22;7528;48.576;19.122;2023-06-05T19:29:23;21.10;79.10
14873;DHT22;7528;48.576;19.122;2023-06-05T19:34:25;21.50;79.30
14873;DHT22;7528;48.576;19.122;2023-06-05T19:39:27;22.10;76.30
14873;DHT22;7528;48.576;19.122;2023-06-05T19:44:32;22.40;74.90
14873;DHT22;7528;48.576;19.122;2023-06-05T19:49:35;22.50;74.00
14873;DHT22;7528;48.576;19.122;2023-06-05T19:54:37;22.60;73.70
14873;DHT22;7528;48.576;19.122;2023-06-05T19:59:41;22.50;73.10
14873;DHT22;7528;48.576;19.122;2023-06-05T20:04:45;22.50;72.70
14873;DHT22;7528;48.576;19.122;2023-06-05T20:09:47;22.50;72.90
14873;DHT22;7528;48.576;19.122;2023-06-05T20:14:51;22.40;72.90
14873;DHT22;7528;48.576;19.122;2023-06-05T20:19:53;22.40;73.00
14873;DHT22;7528;48.576;19.122;2023-06-05T20:24:56;22.40;73.60
14873;DHT22;7528;48.576;19.122;2023-06-05T20:30:00;22.30;73.70
14873;DHT22;7528;48.576;19.122;2023-06-05T20:35:03;22.20;73.50
14873;DHT22;7528;48.576;19.122;2023-06-05T20:40:07;22.20;74.00
14873;DHT22;7528;48.576;19.122;2023-06-05T20:45:12;22.20;74.30
14873;DHT22;7528;48.576;19.122;2023-06-05T20:50:14;22.10;73.80
14873;DHT22;7528;48.576;19.122;2023-06-05T20:55:21;22.10;74.50
14873;DHT22;7528;48.576;19.122;2023-06-05T21:00:25;22.00;74.60
14873;DHT22;7528;48.576;19.122;2023-06-05T21:05:28;21.90;75.50
14873;DHT22;7528;48.576;19.122;2023-06-05T21:10:31;21.90;74.30
14873;DHT22;7528;48.576;19.122;2023-06-05T21:15:34;21.90;73.80
14873;DHT22;7528;48.576;19.122;2023-06-05T21:20:37;21.90;73.90
14873;DHT22;7528;48.576;19.122;2023-06-05T21:25:39;21.80;73.50
14873;DHT22;7528;48.576;19.122;2023-06-05T21:30:43;21.70;73.80
14873;DHT22;7528;48.576;19.122;2023-06-05T21:35:45;21.60;73.80
14873;DHT22;7528;48.576;19.122;2023-06-05T21:40:48;21.60;74.20
14873;DHT22;7528;48.576;19.122;2023-06-05T21:45:52;21.60;74.40
14873;DHT22;7528;48.576;19.122;2023-06-05T21:50:55;21.50;75.00
14873;DHT22;7528;48.576;19.122;2023-06-05T21:55:57;21.40;74.60
14873;DHT22;7528;48.576;19.122;2023-06-05T22:01:01;21.40;74.00
14873;DHT22;7528;48.576;19.122;2023-06-05T22:06:03;21.30;74.90
14873;DHT22;7528;48.576;19.122;2023-06-05T22:11:06;21.30;75.30
14873;DHT22;7528;48.576;19.122;2023-06-05T22:16:10;21.30;75.70
14873;DHT22;7528;48.576;19.122;2023-06-05T22:21:12;21.20;76.40
14873;DHT22;7528;48.576;19.122;2023-06-05T22:26:15;21.20;76.90
14873;DHT22;7528;48.576;19.122;2023-06-05T22:31:19;21.10;77.00
14873;DHT22;7528;48.576;19.122;2023-06-05T22:36:22;21.00;76.90
14873;DHT22;7528;48.576;19.122;2023-06-05T22:41:30;21.00;77.80
14873;DHT22;7528;48.576;19.122;2023-06-05T22:46:34;21.00;77.80
14873;DHT22;7528;48.576;19.122;2023-06-05T22:51:37;20.90;77.90
14873;DHT22;7528;48.576;19.122;2023-06-05T22:56:40;20.90;78.40
14873;DHT22;7528;48.576;19.122;2023-06-05T23:01:44;20.90;78.30
14873;DHT22;7528;48.576;19.122;2023-06-05T23:06:48;20.80;77.90
14873;DHT22;7528;48.576;19.122;2023-06-05T23:11:51;20.80;78.30
14873;DHT22;7528;48.576;19.122;2023-06-05T23:16:55;20.80;78.00
14873;DHT22;7528;48.576;19.122;2023-06-05T23:21:57;20.70;78.20
14873;DHT22;7528;48.576;19.122;2023-06-05T23:26:59;20.70;78.50
14873;DHT22;7528;48.576;19.122;2023-06-05T23:32:04;20.60;79.60
14873;DHT22;7528;48.576;19.122;2023-06-05T23:37:07;20.60;79.10
14873;DHT22;7528;48.576;19.122;2023-06-05T23:42:09;20.60;79.80
14873;DHT22;7528;48.576;19.122;2023-06-05T23:47:13;20.50;79.80
14873;DHT22;7528;48.576;19.122;2023-06-05T23:52:16;20.40;80.00
14873;DHT22;7528;48.576;19.122;2023-06-05T23:57:18;20.40;80.60
